createdAt,value
2022-08-28T00:00:30.857Z,101818.38
2022-08-28T00:02:58.924Z,101816.63
2022-08-28T00:05:31.641Z,101825.59
2022-08-28T00:08:00.368Z,101824.78
2022-08-28T00:10:28.697Z,101818.66
2022-08-28T00:12:57.469Z,101821.31
2022-08-28T00:15:33.596Z,101819.53
2022-08-28T00:18:03.697Z,101823.16
2022-08-28T00:20:33.527Z,101826.78
2022-08-28T00:23:01.686Z,101825.06
2022-08-28T00:25:30.897Z,101831.31
2022-08-28T00:28:08.585Z,101824.25
2022-08-28T00:30:43.797Z,101825.19
2022-08-28T00:33:18.138Z,101822.53
2022-08-28T00:35:47.949Z,101828.84
2022-08-28T00:38:19.255Z,101825.34
2022-08-28T00:40:52.355Z,101828.09
2022-08-28T00:43:33.917Z,101826.41
2022-08-28T00:46:09.598Z,101819.47
2022-08-28T00:48:38.076Z,101821.19
2022-08-28T00:51:25.864Z,101816.78
2022-08-28T00:53:58.821Z,101824.72
2022-08-28T00:56:29.868Z,101823.91
2022-08-28T00:59:03.582Z,101825.75
2022-08-28T01:01:31.296Z,101832.00
2022-08-28T01:03:58.850Z,101834.78
2022-08-28T01:06:26.337Z,101834.00
2022-08-28T01:08:54.462Z,101834.16
2022-08-28T01:11:21.903Z,101826.38
2022-08-28T01:13:51.194Z,101834.41
2022-08-28T01:16:22.575Z,101837.13
2022-08-28T01:18:55.251Z,101839.00
2022-08-28T01:21:58.618Z,101843.34
2022-08-28T01:24:27.356Z,101834.69
2022-08-28T01:26:54.791Z,101834.78
2022-08-28T01:29:24.278Z,101834.88
2022-08-28T01:31:51.741Z,101845.56
2022-08-28T01:34:19.203Z,101845.72
2022-08-28T01:36:48.432Z,101853.75
2022-08-28T01:39:22.260Z,101850.34
2022-08-28T01:41:54.595Z,101844.22
2022-08-28T01:44:26.286Z,101839.06
2022-08-28T01:46:57.095Z,101840.09
2022-08-28T01:49:29.218Z,101840.13
2022-08-28T01:51:58.326Z,101834.94
2022-08-28T01:54:28.722Z,101842.94
2022-08-28T01:56:56.482Z,101841.25
2022-08-28T01:59:24.008Z,101840.41
2022-08-28T02:01:52.506Z,101839.63
2022-08-28T02:04:19.991Z,101839.78
2022-08-28T02:06:53.410Z,101848.69
2022-08-28T02:09:20.883Z,101849.59
2022-08-28T02:11:48.352Z,101854.06
2022-08-28T02:14:16.572Z,101847.06
2022-08-28T02:16:44.084Z,101854.06
2022-08-28T02:19:12.147Z,101855.00
2022-08-28T02:21:40.284Z,101859.38
2022-08-28T02:24:08.664Z,101862.00
2022-08-28T02:26:36.147Z,101865.56
2022-08-28T02:29:04.818Z,101865.50
2022-08-28T02:31:32.494Z,101867.25
2022-08-28T02:34:01.009Z,101868.06
2022-08-28T02:36:29.050Z,101866.31
2022-08-28T02:38:57.907Z,101863.66
2022-08-28T02:41:26.176Z,101858.38
2022-08-28T02:43:54.514Z,101859.25
2022-08-28T02:46:21.975Z,101856.66
2022-08-28T02:48:50.431Z,101854.91
2022-08-28T02:51:19.985Z,101862.94
2022-08-28T02:53:47.758Z,101857.72
2022-08-28T02:56:15.392Z,101857.03
2022-08-28T02:58:44.570Z,101862.41
2022-08-28T03:01:14.724Z,101865.13
2022-08-28T03:03:43.185Z,101859.97
2022-08-28T03:06:12.881Z,101859.19
2022-08-28T03:08:43.580Z,101861.91
2022-08-28T03:11:12.029Z,101861.94
2022-08-28T03:13:39.570Z,101862.84
2022-08-28T03:16:07.410Z,101864.66
2022-08-28T03:18:35.116Z,101876.16
2022-08-28T03:21:03.213Z,101871.78
2022-08-28T03:23:31.955Z,101867.47
2022-08-28T03:26:04.888Z,101866.66
2022-08-28T03:28:40.751Z,101866.72
2022-08-28T03:31:12.428Z,101865.91
2022-08-28T03:33:42.717Z,101864.16
2022-08-28T03:36:13.611Z,101872.16
2022-08-28T03:38:41.980Z,101872.16
2022-08-28T03:41:17.120Z,101871.25
2022-08-28T03:43:45.425Z,101871.34
2022-08-28T03:46:20.663Z,101868.75
2022-08-28T03:48:48.137Z,101877.59
2022-08-28T03:51:27.971Z,101880.28
2022-08-28T03:53:59.733Z,101882.91
2022-08-28T03:56:30.493Z,101879.41
2022-08-28T03:59:02.274Z,101894.31
2022-08-28T04:01:29.822Z,101890.84
2022-08-28T04:03:57.363Z,101886.41
2022-08-28T04:06:25.409Z,101880.97
2022-08-28T04:08:52.844Z,101893.22
2022-08-28T04:11:20.593Z,101886.97
2022-08-28T04:13:48.151Z,101894.84
2022-08-28T04:16:19.159Z,101897.41
2022-08-28T04:18:49.909Z,101901.75
2022-08-28T04:21:23.793Z,101892.88
2022-08-28T04:23:51.725Z,101896.34
2022-08-28T04:26:23.096Z,101901.53
2022-08-28T04:28:52.620Z,101890.94
2022-08-28T04:31:31.852Z,101903.25
2022-08-28T04:34:06.858Z,101897.91
2022-08-28T04:36:35.881Z,101902.34
2022-08-28T04:39:08.551Z,101903.19
2022-08-28T04:41:38.684Z,101901.47
2022-08-28T04:44:07.856Z,101900.56
2022-08-28T04:46:37.241Z,101916.41
2022-08-28T04:49:05.795Z,101911.94
2022-08-28T04:51:33.730Z,101915.41
2022-08-28T04:54:03.458Z,101914.44
2022-08-28T04:56:31.031Z,101905.63
2022-08-28T04:59:01.520Z,101917.88
2022-08-28T05:01:29.150Z,101910.81
2022-08-28T05:04:02.173Z,101920.50
2022-08-28T05:06:33.032Z,101913.47
2022-08-28T05:09:03.722Z,101919.69
2022-08-28T05:11:34.452Z,101918.75
2022-08-28T05:14:09.625Z,101917.84
2022-08-28T05:16:52.763Z,101923.97
2022-08-28T05:19:21.191Z,101932.81
2022-08-28T05:21:48.794Z,101931.00
2022-08-28T05:24:18.818Z,101931.81
2022-08-28T05:26:47.955Z,101924.81
2022-08-28T05:29:17.003Z,101932.75
2022-08-28T05:31:46.427Z,101937.94
2022-08-28T05:34:15.246Z,101934.44
2022-08-28T05:36:42.773Z,101937.91
2022-08-28T05:39:11.812Z,101942.25
2022-08-28T05:41:44.980Z,101952.81
2022-08-28T05:44:16.576Z,101946.66
2022-08-28T05:46:48.059Z,101945.00
2022-08-28T05:49:18.991Z,101950.31
2022-08-28T05:51:47.895Z,101949.44
2022-08-28T05:54:16.777Z,101950.25
2022-08-28T05:56:46.265Z,101955.47
2022-08-28T05:59:15.959Z,101958.09
2022-08-28T06:01:49.078Z,101952.66
2022-08-28T06:04:24.557Z,101957.03
2022-08-28T06:06:52.160Z,101956.13
2022-08-28T06:09:29.598Z,101960.41
2022-08-28T06:12:01.920Z,101953.28
2022-08-28T06:14:31.273Z,101961.97
2022-08-28T06:17:04.017Z,101964.53
2022-08-28T06:19:37.233Z,101967.91
2022-08-28T06:22:07.788Z,101974.78
2022-08-28T06:24:36.306Z,101977.19
2022-08-28T06:27:04.739Z,101966.34
2022-08-28T06:29:32.257Z,101972.28
2022-08-28T06:32:04.747Z,101968.53
2022-08-28T06:34:32.498Z,101966.59
2022-08-28T06:37:00.597Z,101969.00
2022-08-28T06:39:28.049Z,101972.22
2022-08-28T06:41:55.520Z,101973.56
2022-08-28T06:44:23.029Z,101973.97
2022-08-28T06:46:54.344Z,101974.38
2022-08-28T06:49:22.618Z,101973.81
2022-08-28T06:51:50.705Z,101975.88
2022-08-28T06:54:22.992Z,101979.69
2022-08-28T06:56:52.790Z,101983.41
2022-08-28T06:59:20.288Z,101984.53
2022-08-28T07:01:48.277Z,101987.44
2022-08-28T07:04:15.907Z,101983.16
2022-08-28T07:06:53.752Z,101984.19
2022-08-28T07:09:24.246Z,101991.41
2022-08-28T07:11:52.676Z,101988.00
2022-08-28T07:14:20.264Z,101989.09
2022-08-28T07:16:47.858Z,101990.38
2022-08-28T07:19:15.741Z,101992.47
2022-08-28T07:21:45.669Z,101989.09
2022-08-28T07:24:16.028Z,101985.84
2022-08-28T07:26:45.841Z,101993.09
2022-08-28T07:29:14.349Z,101986.06
2022-08-28T07:31:48.590Z,101985.47
2022-08-28T07:34:21.026Z,102000.28
2022-08-28T07:36:51.883Z,101987.63
2022-08-28T07:39:19.805Z,101989.06
2022-08-28T07:41:47.952Z,101985.19
2022-08-28T07:44:36.431Z,101991.16
2022-08-28T07:47:06.494Z,101991.66
2022-08-28T07:49:36.360Z,101995.00
2022-08-28T07:52:06.645Z,102000.19
2022-08-28T07:54:36.013Z,102004.94
2022-08-28T07:57:05.565Z,101997.59
2022-08-28T07:59:36.822Z,102006.69
2022-08-28T08:02:05.998Z,101995.78
2022-08-28T08:04:33.887Z,102011.34
2022-08-28T08:07:03.372Z,102017.47
2022-08-28T08:09:30.973Z,102021.94
2022-08-28T08:12:00.003Z,102025.66
2022-08-28T08:14:28.198Z,102024.91
2022-08-28T08:16:55.589Z,102019.53
2022-08-28T08:19:23.163Z,102026.28
2022-08-28T08:21:54.594Z,102026.97
2022-08-28T08:24:28.359Z,102027.44
2022-08-28T08:27:00.908Z,102020.34
2022-08-28T08:29:36.978Z,102030.31
2022-08-28T08:32:10.662Z,102022.28
2022-08-28T08:34:42.649Z,102032.34
2022-08-28T08:37:11.651Z,102025.09
2022-08-28T08:39:42.072Z,102021.00
2022-08-28T08:42:25.427Z,102027.44
2022-08-28T08:44:56.355Z,102025.28
2022-08-28T08:47:51.338Z,102026.09
2022-08-28T08:50:25.673Z,102029.69
2022-08-28T08:53:21.393Z,102026.66
2022-08-28T08:55:53.342Z,102028.47
2022-08-28T08:58:45.487Z,102017.56
2022-08-28T09:01:28.886Z,102028.78
2022-08-28T09:04:16.518Z,102018.13
2022-08-28T09:07:19.796Z,102023.16
2022-08-28T09:09:57.307Z,102018.81
2022-08-28T09:12:34.805Z,102016.81
2022-08-28T09:15:17.434Z,102016.00
2022-08-28T09:17:53.537Z,102018.03
2022-08-28T09:20:32.875Z,102020.28
2022-08-28T09:23:02.136Z,102027.31
2022-08-28T09:25:51.719Z,102019.38
2022-08-28T09:28:40.753Z,102024.94
2022-08-28T09:31:31.913Z,102023.09
2022-08-28T09:34:31.836Z,102018.59
2022-08-28T09:37:02.418Z,102014.34
2022-08-28T09:39:33.811Z,102007.47
2022-08-28T09:42:41.320Z,102015.09
2022-08-28T09:45:24.178Z,102007.47
2022-08-28T09:47:56.056Z,102009.44
2022-08-28T09:50:37.110Z,102009.69
2022-08-28T09:53:10.481Z,102013.75
2022-08-28T09:55:56.005Z,102011.38
2022-08-28T09:58:35.483Z,102011.59
2022-08-28T10:01:19.089Z,102024.63
2022-08-28T10:04:17.546Z,102010.09
2022-08-28T10:07:09.239Z,102008.09
2022-08-28T10:09:40.131Z,102013.53
2022-08-28T10:12:50.423Z,102016.63
2022-08-28T10:15:59.535Z,102010.97
2022-08-28T10:18:48.277Z,102014.94
2022-08-28T10:21:26.770Z,102009.78
2022-08-28T10:24:29.222Z,102012.25
2022-08-28T10:27:43.301Z,102019.41
2022-08-28T10:30:19.346Z,102018.50
2022-08-28T10:33:25.882Z,102017.09
2022-08-28T10:36:33.998Z,102020.81
2022-08-28T10:39:45.701Z,102030.88
2022-08-28T10:42:30.198Z,102022.06
2022-08-28T10:45:14.373Z,102026.56
2022-08-28T10:47:50.902Z,102024.09
2022-08-28T10:50:41.218Z,102018.88
2022-08-28T10:53:23.191Z,102014.81
2022-08-28T10:56:02.966Z,102011.00
2022-08-28T10:58:37.044Z,102012.78
2022-08-28T11:01:28.555Z,102016.03
2022-08-28T11:04:01.001Z,102014.25
2022-08-28T11:06:31.795Z,102015.75
2022-08-28T11:09:24.789Z,102015.28
2022-08-28T11:12:10.210Z,102009.41
2022-08-28T11:14:48.497Z,102005.25
2022-08-28T11:17:22.159Z,102017.44
2022-08-28T11:20:25.028Z,102013.72
2022-08-28T11:23:10.444Z,102016.28
2022-08-28T11:25:54.725Z,102012.50
2022-08-28T11:28:24.787Z,102019.13
2022-08-28T11:31:05.441Z,102020.28
2022-08-28T11:33:50.510Z,102020.13
2022-08-28T11:36:40.718Z,102018.22
2022-08-28T11:39:14.113Z,102013.03
2022-08-28T11:42:36.221Z,102020.66
2022-08-28T11:45:04.658Z,102016.25
2022-08-28T11:47:43.629Z,102012.56
2022-08-28T11:50:18.270Z,102006.28
2022-08-28T11:53:24.960Z,102013.34
2022-08-28T11:56:38.524Z,102011.94
2022-08-28T11:59:45.199Z,102017.00
2022-08-28T12:02:44.175Z,102021.16
2022-08-28T12:05:14.575Z,102016.78
2022-08-28T12:07:49.417Z,102015.06
2022-08-28T12:10:22.922Z,102008.72
2022-08-28T12:12:54.110Z,102009.69
2022-08-28T12:15:27.586Z,102006.34
2022-08-28T12:18:11.748Z,102002.63
2022-08-28T12:21:01.283Z,102005.41
2022-08-28T12:23:37.804Z,102008.31
2022-08-28T12:26:13.249Z,101996.66
2022-08-28T12:28:52.576Z,101996.41
2022-08-28T12:31:47.500Z,101994.28
2022-08-28T12:34:43.570Z,102000.75
2022-08-28T12:37:51.856Z,101986.69
2022-08-28T12:40:52.940Z,101996.94
2022-08-28T12:43:46.290Z,101995.19
2022-08-28T12:46:28.859Z,101998.31
2022-08-28T12:49:03.177Z,101994.34
2022-08-28T12:51:37.531Z,101998.69
2022-08-28T12:54:08.728Z,101997.78
2022-08-28T12:56:38.563Z,101992.66
2022-08-28T12:59:37.822Z,101984.88
2022-08-28T13:02:08.221Z,101983.78
2022-08-28T13:05:09.543Z,101989.81
2022-08-28T13:07:51.833Z,101984.09
2022-08-28T13:10:29.766Z,101985.94
2022-08-28T13:13:18.794Z,101985.00
2022-08-28T13:16:00.716Z,101989.25
2022-08-28T13:19:10.696Z,101988.34
2022-08-28T13:22:00.383Z,101976.94
2022-08-28T13:24:44.603Z,101977.09
2022-08-28T13:27:12.091Z,101972.91
2022-08-28T13:30:01.189Z,101974.09
2022-08-28T13:32:33.165Z,101962.81
2022-08-28T13:35:22.311Z,101962.66
2022-08-28T13:37:54.255Z,101962.75
2022-08-28T13:43:17.051Z,101968.88
2022-08-28T13:45:48.659Z,101961.81
2022-08-28T13:48:21.526Z,101968.53
2022-08-28T13:51:11.994Z,101963.41
2022-08-28T13:53:43.947Z,101970.53
2022-08-28T13:56:12.259Z,101965.94
2022-08-28T13:58:39.720Z,101971.97
2022-08-28T14:01:07.393Z,101967.44
2022-08-28T14:03:38.824Z,101961.91
2022-08-28T14:06:14.735Z,101958.03
2022-08-28T14:08:44.489Z,101963.06
2022-08-28T14:11:15.167Z,101961.66
2022-08-28T14:13:46.948Z,101951.97
2022-08-28T14:16:25.916Z,101953.59
2022-08-28T14:18:53.877Z,101948.63
2022-08-28T14:21:24.626Z,101950.44
2022-08-28T14:23:52.200Z,101947.50
2022-08-28T14:26:26.465Z,101958.00
2022-08-28T14:28:54.273Z,101951.47
2022-08-28T14:31:25.543Z,101953.69
2022-08-28T14:33:54.995Z,101949.75
2022-08-28T14:36:27.810Z,101955.34
2022-08-28T14:39:01.779Z,101944.88
2022-08-28T14:41:34.622Z,101951.03
2022-08-28T14:44:04.886Z,101950.22
2022-08-28T14:46:37.676Z,101952.47
2022-08-28T14:49:09.697Z,101944.22
2022-08-28T14:51:41.473Z,101947.50
2022-08-28T14:54:12.125Z,101935.47
2022-08-28T14:56:43.124Z,101938.78
2022-08-28T14:59:19.498Z,101935.81
2022-08-28T15:01:50.403Z,101950.13
2022-08-28T15:04:22.813Z,101948.28
2022-08-28T15:06:58.607Z,101953.88
2022-08-28T15:09:26.443Z,101940.31
2022-08-28T15:11:55.103Z,101947.84
2022-08-28T15:14:22.565Z,101940.00
2022-08-28T15:16:50.145Z,101945.28
2022-08-28T15:19:18.603Z,101936.13
2022-08-28T15:21:53.855Z,101937.50
2022-08-28T15:24:27.953Z,101935.97
2022-08-28T15:26:56.864Z,101935.44
2022-08-28T15:29:24.412Z,101932.47
2022-08-28T15:31:52.862Z,101920.66
2022-08-28T15:34:24.962Z,101930.31
2022-08-28T15:36:55.741Z,101924.19
2022-08-28T15:39:45.639Z,101929.47
2022-08-28T15:42:14.610Z,101934.94
2022-08-28T15:44:43.924Z,101933.63
2022-08-28T15:47:13.758Z,101929.19
2022-08-28T15:49:46.721Z,101932.75
2022-08-28T15:52:18.858Z,101929.13
2022-08-28T15:54:48.006Z,101924.00
2022-08-28T15:57:16.035Z,101934.84
2022-08-28T15:59:49.815Z,101934.84
2022-08-28T16:02:21.905Z,101927.06
2022-08-28T16:04:50.177Z,101926.44
2022-08-28T16:07:20.750Z,101923.44
2022-08-28T16:09:48.468Z,101927.50
2022-08-28T16:12:16.821Z,101932.06
2022-08-28T16:14:44.786Z,101924.28
2022-08-28T16:17:12.522Z,101927.19
2022-08-28T16:19:40.923Z,101921.94
2022-08-28T16:22:11.045Z,101926.84
2022-08-28T16:24:39.091Z,101929.63
2022-08-28T16:27:09.525Z,101931.09
2022-08-28T16:29:38.929Z,101936.53
2022-08-28T16:32:07.012Z,101944.34
2022-08-28T16:34:35.258Z,101925.03
2022-08-28T16:37:04.643Z,101927.16
2022-08-28T16:39:32.198Z,101931.75
2022-08-28T16:41:59.744Z,101926.06
2022-08-28T16:44:27.373Z,101929.28
2022-08-28T16:46:55.955Z,101933.22
2022-08-28T16:49:24.734Z,101927.22
2022-08-28T16:51:52.531Z,101929.28
2022-08-28T16:54:21.711Z,101924.38
2022-08-28T16:56:49.311Z,101927.59
2022-08-28T16:59:18.209Z,101939.34
2022-08-28T17:01:47.342Z,101933.78
2022-08-28T17:04:21.093Z,101934.34
2022-08-28T17:06:48.924Z,101936.19
2022-08-28T17:09:16.472Z,101935.63
2022-08-28T17:11:45.564Z,101932.88
2022-08-28T17:14:21.659Z,101933.94
2022-08-28T17:16:50.589Z,101932.00
2022-08-28T17:19:19.407Z,101932.69
2022-08-28T17:22:05.285Z,101930.22
2022-08-28T17:24:32.850Z,101935.66
2022-08-28T17:27:05.251Z,101933.50
2022-08-28T17:29:36.293Z,101936.88
2022-08-28T17:32:05.731Z,101937.47
2022-08-28T17:34:33.553Z,101943.72
2022-08-28T17:37:01.485Z,101933.03
2022-08-28T17:39:29.657Z,101937.28
2022-08-28T17:41:57.614Z,101938.94
2022-08-28T17:44:25.549Z,101940.78
2022-08-28T17:46:54.055Z,101936.75
2022-08-28T17:49:22.501Z,101947.19
2022-08-28T17:51:51.100Z,101948.13
2022-08-28T17:54:24.043Z,101944.69
2022-08-28T17:56:54.344Z,101941.13
2022-08-28T17:59:24.409Z,101943.78
2022-08-28T18:01:53.403Z,101945.56
2022-08-28T18:04:24.389Z,101956.31
2022-08-28T18:06:54.484Z,101950.28
2022-08-28T18:09:24.179Z,101953.09
2022-08-28T18:11:52.657Z,101948.69
2022-08-28T18:14:20.893Z,101952.09
2022-08-28T18:16:48.481Z,101952.88
2022-08-28T18:19:16.492Z,101959.09
2022-08-28T18:21:44.905Z,101958.19
2022-08-28T18:24:13.135Z,101957.88
2022-08-28T18:26:42.996Z,101960.28
2022-08-28T18:29:11.815Z,101959.97
2022-08-28T18:31:40.885Z,101961.28
2022-08-28T18:34:09.871Z,101967.19
2022-08-28T18:36:39.890Z,101967.81
2022-08-28T18:39:08.224Z,101964.75
2022-08-28T18:41:43.957Z,101969.75
2022-08-28T18:44:15.257Z,101975.63
2022-08-28T18:46:44.088Z,101979.75
2022-08-28T18:49:12.616Z,101981.09
2022-08-28T18:51:43.402Z,101983.28
2022-08-28T18:54:14.525Z,101986.47
2022-08-28T18:56:46.025Z,101985.97
2022-08-28T18:59:15.915Z,101985.47
2022-08-28T19:01:43.585Z,101996.50
2022-08-28T19:04:11.152Z,101997.72
2022-08-28T19:06:41.373Z,102003.34
2022-08-28T19:09:09.011Z,102007.31
2022-08-28T19:11:39.223Z,102007.75
2022-08-28T19:14:08.432Z,102005.53
2022-08-28T19:16:35.893Z,102016.50
2022-08-28T19:19:04.560Z,102012.44
2022-08-28T19:21:32.567Z,102019.03
2022-08-28T19:24:00.367Z,102020.22
2022-08-28T19:26:28.625Z,102025.00
2022-08-28T19:28:57.015Z,102022.66
2022-08-28T19:31:27.022Z,102019.34
2022-08-28T19:33:55.441Z,102024.91
2022-08-28T19:36:22.978Z,102028.75
2022-08-28T19:38:50.712Z,102033.41
2022-08-28T19:41:18.220Z,102033.53
2022-08-28T19:43:45.661Z,102037.22
2022-08-28T19:46:19.240Z,102034.75
2022-08-28T19:48:50.740Z,102038.47
2022-08-28T19:51:23.077Z,102044.00
2022-08-28T19:53:57.833Z,102041.63
2022-08-28T19:56:28.731Z,102041.00
2022-08-28T19:58:59.103Z,102044.69
2022-08-28T20:01:29.973Z,102043.94
2022-08-28T20:03:59.178Z,102047.63
2022-08-28T20:06:30.233Z,102055.75
2022-08-28T20:08:57.955Z,102054.19
2022-08-28T20:11:30.247Z,102052.53
2022-08-28T20:14:05.837Z,102054.44
2022-08-28T20:16:42.346Z,102060.78
2022-08-28T20:19:12.445Z,102061.81
2022-08-28T20:21:47.020Z,102060.22
2022-08-28T20:24:18.469Z,102066.50
2022-08-28T20:26:46.732Z,102067.59
2022-08-28T20:29:15.578Z,102068.63
2022-08-28T20:31:47.891Z,102064.34
2022-08-28T20:34:18.575Z,102064.59
2022-08-28T20:36:46.382Z,102071.78
2022-08-28T20:39:15.444Z,102064.69
2022-08-28T20:41:44.365Z,102070.97
2022-08-28T20:44:16.157Z,102069.31
2022-08-28T20:46:43.860Z,102077.38
2022-08-28T20:49:17.001Z,102080.13
2022-08-28T20:51:57.659Z,102085.47
2022-08-28T20:54:36.912Z,102082.91
2022-08-28T20:57:12.202Z,102091.91
2022-08-28T20:59:42.511Z,102093.91
2022-08-28T21:02:23.831Z,102097.78
2022-08-28T21:04:52.502Z,102102.44
2022-08-28T21:07:23.298Z,102099.88
2022-08-28T21:10:05.396Z,102107.03
2022-08-28T21:12:39.953Z,102111.59
2022-08-28T21:15:12.497Z,102107.22
2022-08-28T21:17:40.979Z,102110.91
2022-08-28T21:20:13.767Z,102107.44
2022-08-28T21:22:42.242Z,102097.03
2022-08-28T21:25:11.359Z,102103.31
2022-08-28T21:27:39.334Z,102103.41
2022-08-28T21:30:09.605Z,102108.84
2022-08-28T21:32:37.510Z,102112.53
2022-08-28T21:35:10.915Z,102112.66
2022-08-28T21:37:41.334Z,102115.44
2022-08-28T21:40:15.428Z,102114.66
2022-08-28T21:42:43.748Z,102103.31
2022-08-28T21:45:12.563Z,102113.19
2022-08-28T21:47:42.175Z,102117.59
2022-08-28T21:50:11.472Z,102115.06
2022-08-28T21:52:40.547Z,102113.44
2022-08-28T21:55:13.370Z,102121.44
2022-08-28T21:57:41.356Z,102116.25
2022-08-28T22:00:15.807Z,102122.53
2022-08-28T22:02:44.075Z,102119.91
2022-08-28T22:05:11.777Z,102127.97
2022-08-28T22:07:40.343Z,102124.47
2022-08-28T22:10:09.411Z,102124.59
2022-08-28T22:12:36.946Z,102114.00
2022-08-28T22:15:05.344Z,102116.78
2022-08-28T22:17:32.798Z,102119.44
2022-08-28T22:20:00.267Z,102123.81
2022-08-28T22:22:46.411Z,102122.13
2022-08-28T22:25:14.363Z,102124.94
2022-08-28T22:27:41.775Z,102120.66
2022-08-28T22:30:10.063Z,102118.97
2022-08-28T22:32:37.485Z,102116.47
2022-08-28T22:35:05.864Z,102119.16
2022-08-28T22:37:35.789Z,102116.56
2022-08-28T22:40:09.369Z,102120.19
2022-08-28T22:42:42.519Z,102115.03
2022-08-28T22:45:10.736Z,102116.88
2022-08-28T22:47:38.486Z,102119.63
2022-08-28T22:50:07.484Z,102126.78
2022-08-28T22:52:35.157Z,102125.09
2022-08-28T22:55:03.705Z,102129.59
2022-08-28T22:57:34.091Z,102126.28
2022-08-28T23:00:03.666Z,102129.00
2022-08-28T23:02:31.251Z,102129.94
2022-08-28T23:04:58.815Z,102125.69
2022-08-28T23:07:26.318Z,102116.94
2022-08-28T23:09:53.780Z,102126.69
2022-08-28T23:12:21.258Z,102117.09
2022-08-28T23:14:48.975Z,102111.91
2022-08-28T23:17:18.719Z,102119.06
2022-08-28T23:19:48.060Z,102112.94
2022-08-28T23:22:16.113Z,102112.13
2022-08-28T23:24:46.163Z,102114.00
2022-08-28T23:27:34.865Z,102113.25
2022-08-28T23:30:01.087Z,102108.09
2022-08-28T23:32:28.608Z,102103.75
2022-08-28T23:34:56.000Z,102102.94
2022-08-28T23:37:23.490Z,102110.03
2022-08-28T23:39:50.913Z,102111.00
2022-08-28T23:42:18.456Z,102112.84
2022-08-28T23:44:47.254Z,102112.00
2022-08-28T23:47:14.976Z,102112.97
2022-08-28T23:49:43.046Z,102107.72
2022-08-28T23:52:10.540Z,102110.47
2022-08-28T23:54:39.883Z,102111.38
2022-08-28T23:57:09.022Z,102111.38
2022-08-28T23:59:39.577Z,102113.19
